sensor_id;sensor_type;location;lat;lon;timestamp;P1;durP1;ratioP1;P2;durP2;ratioP2
62554;SDS011;48610;52.144;8.624;2024-01-30T00:02:35;19.48;;;9.80;;
62554;SDS011;48610;52.144;8.624;2024-01-30T00:05:36;16.23;;;8.80;;
62554;SDS011;48610;52.144;8.624;2024-01-30T00:08:36;14.48;;;8.65;;
62554;SDS011;48610;52.144;8.624;2024-01-30T00:11:37;14.40;;;8.43;;
62554;SDS011;48610;52.144;8.624;2024-01-30T00:14:38;18.05;;;8.70;;
62554;SDS011;48610;52.144;8.624;2024-01-30T00:17:38;20.65;;;9.27;;
62554;SDS011;48610;52.144;8.624;2024-01-30T00:20:39;13.48;;;8.32;;
62554;SDS011;48610;52.144;8.624;2024-01-30T00:23:39;16.80;;;8.02;;
62554;SDS011;48610;52.144;8.624;2024-01-30T00:26:40;13.93;;;8.30;;
62554;SDS011;48610;52.144;8.624;2024-01-30T00:29:40;14.30;;;8.70;;
62554;SDS011;48610;52.144;8.624;2024-01-30T00:32:41;15.43;;;8.15;;
62554;SDS011;48610;52.144;8.624;2024-01-30T00:35:41;13.38;;;8.27;;
62554;SDS011;48610;52.144;8.624;2024-01-30T00:38:42;15.13;;;8.15;;
62554;SDS011;48610;52.144;8.624;2024-01-30T00:41:43;14.73;;;8.43;;
62554;SDS011;48610;52.144;8.624;2024-01-30T00:44:43;16.02;;;8.50;;
62554;SDS011;48610;52.144;8.624;2024-01-30T00:47:44;15.13;;;9.07;;
62554;SDS011;48610;52.144;8.624;2024-01-30T00:50:44;19.52;;;8.32;;
62554;SDS011;48610;52.144;8.624;2024-01-30T00:53:45;13.25;;;8.35;;
62554;SDS011;48610;52.144;8.624;2024-01-30T00:56:46;13.90;;;8.75;;
62554;SDS011;48610;52.144;8.624;2024-01-30T00:59:46;20.17;;;8.80;;
62554;SDS011;48610;52.144;8.624;2024-01-30T01:02:47;15.50;;;8.98;;
62554;SDS011;48610;52.144;8.624;2024-01-30T01:05:47;13.73;;;8.50;;
62554;SDS011;48610;52.144;8.624;2024-01-30T01:08:48;18.27;;;8.13;;
62554;SDS011;48610;52.144;8.624;2024-01-30T01:11:48;13.80;;;8.68;;
62554;SDS011;48610;52.144;8.624;2024-01-30T01:14:49;21.90;;;8.82;;
62554;SDS011;48610;52.144;8.624;2024-01-30T01:17:49;15.93;;;9.00;;
62554;SDS011;48610;52.144;8.624;2024-01-30T01:20:50;20.05;;;9.23;;
62554;SDS011;48610;52.144;8.624;2024-01-30T01:23:51;14.30;;;9.02;;
62554;SDS011;48610;52.144;8.624;2024-01-30T01:26:51;14.77;;;8.80;;
62554;SDS011;48610;52.144;8.624;2024-01-30T01:29:52;16.23;;;8.60;;
62554;SDS011;48610;52.144;8.624;2024-01-30T01:32:53;14.00;;;8.75;;
62554;SDS011;48610;52.144;8.624;2024-01-30T01:35:57;16.88;;;8.65;;
62554;SDS011;48610;52.144;8.624;2024-01-30T01:38:58;14.68;;;9.07;;
62554;SDS011;48610;52.144;8.624;2024-01-30T01:41:58;20.95;;;9.60;;
62554;SDS011;48610;52.144;8.624;2024-01-30T01:44:59;15.75;;;9.20;;
62554;SDS011;48610;52.144;8.624;2024-01-30T01:47:59;15.73;;;9.10;;
62554;SDS011;48610;52.144;8.624;2024-01-30T01:51:00;16.02;;;8.65;;
62554;SDS011;48610;52.144;8.624;2024-01-30T01:54:03;21.73;;;8.65;;
62554;SDS011;48610;52.144;8.624;2024-01-30T01:57:04;16.70;;;9.48;;
62554;SDS011;48610;52.144;8.624;2024-01-30T02:00:05;15.02;;;8.48;;
62554;SDS011;48610;52.144;8.624;2024-01-30T02:03:08;19.10;;;8.75;;
62554;SDS011;48610;52.144;8.624;2024-01-30T02:06:11;17.42;;;8.48;;
62554;SDS011;48610;52.144;8.624;2024-01-30T02:09:16;16.45;;;8.70;;
62554;SDS011;48610;52.144;8.624;2024-01-30T02:12:16;17.23;;;9.23;;
62554;SDS011;48610;52.144;8.624;2024-01-30T02:15:17;18.52;;;8.70;;
62554;SDS011;48610;52.144;8.624;2024-01-30T02:18:19;17.52;;;9.50;;
62554;SDS011;48610;52.144;8.624;2024-01-30T02:21:21;12.93;;;8.30;;
62554;SDS011;48610;52.144;8.624;2024-01-30T02:24:22;15.80;;;8.45;;
62554;SDS011;48610;52.144;8.624;2024-01-30T02:27:25;18.35;;;8.43;;
62554;SDS011;48610;52.144;8.624;2024-01-30T02:30:26;17.15;;;8.73;;
62554;SDS011;48610;52.144;8.624;2024-01-30T02:33:26;16.45;;;8.70;;
62554;SDS011;48610;52.144;8.624;2024-01-30T02:36:27;15.50;;;7.95;;
62554;SDS011;48610;52.144;8.624;2024-01-30T02:39:27;22.58;;;9.43;;
62554;SDS011;48610;52.144;8.624;2024-01-30T02:42:28;14.00;;;7.88;;
62554;SDS011;48610;52.144;8.624;2024-01-30T02:45:28;15.32;;;8.65;;
62554;SDS011;48610;52.144;8.624;2024-01-30T02:48:29;17.67;;;8.57;;
62554;SDS011;48610;52.144;8.624;2024-01-30T02:51:29;15.93;;;8.82;;
62554;SDS011;48610;52.144;8.624;2024-01-30T02:54:30;16.42;;;8.52;;
62554;SDS011;48610;52.144;8.624;2024-01-30T02:57:30;18.02;;;9.00;;
62554;SDS011;48610;52.144;8.624;2024-01-30T03:00:31;16.65;;;8.55;;
62554;SDS011;48610;52.144;8.624;2024-01-30T03:03:32;16.60;;;8.80;;
62554;SDS011;48610;52.144;8.624;2024-01-30T03:06:34;16.65;;;9.15;;
62554;SDS011;48610;52.144;8.624;2024-01-30T03:09:34;14.15;;;8.25;;
62554;SDS011;48610;52.144;8.624;2024-01-30T03:12:36;14.15;;;8.75;;
62554;SDS011;48610;52.144;8.624;2024-01-30T03:15:36;17.23;;;8.93;;
62554;SDS011;48610;52.144;8.624;2024-01-30T03:18:37;19.55;;;9.32;;
62554;SDS011;48610;52.144;8.624;2024-01-30T03:21:37;16.05;;;8.32;;
62554;SDS011;48610;52.144;8.624;2024-01-30T03:24:38;14.63;;;8.57;;
62554;SDS011;48610;52.144;8.624;2024-01-30T03:27:38;14.80;;;8.52;;
62554;SDS011;48610;52.144;8.624;2024-01-30T03:30:39;16.95;;;9.13;;
62554;SDS011;48610;52.144;8.624;2024-01-30T03:33:39;16.23;;;9.00;;
62554;SDS011;48610;52.144;8.624;2024-01-30T03:36:40;18.30;;;9.05;;
62554;SDS011;48610;52.144;8.624;2024-01-30T03:39:41;14.90;;;9.40;;
62554;SDS011;48610;52.144;8.624;2024-01-30T03:42:41;19.88;;;9.82;;
62554;SDS011;48610;52.144;8.624;2024-01-30T03:45:42;21.90;;;8.65;;
62554;SDS011;48610;52.144;8.624;2024-01-30T03:48:42;15.70;;;8.52;;
62554;SDS011;48610;52.144;8.624;2024-01-30T03:51:43;15.32;;;9.32;;
62554;SDS011;48610;52.144;8.624;2024-01-30T03:54:44;15.63;;;8.85;;
62554;SDS011;48610;52.144;8.624;2024-01-30T03:57:45;21.23;;;8.57;;
62554;SDS011;48610;52.144;8.624;2024-01-30T04:00:45;17.95;;;8.93;;
62554;SDS011;48610;52.144;8.624;2024-01-30T04:03:46;13.98;;;8.70;;
62554;SDS011;48610;52.144;8.624;2024-01-30T04:06:47;13.45;;;8.55;;
62554;SDS011;48610;52.144;8.624;2024-01-30T04:09:47;13.85;;;7.97;;
62554;SDS011;48610;52.144;8.624;2024-01-30T04:12:48;16.40;;;8.45;;
62554;SDS011;48610;52.144;8.624;2024-01-30T04:15:48;17.67;;;8.77;;
62554;SDS011;48610;52.144;8.624;2024-01-30T04:18:49;13.60;;;8.38;;
62554;SDS011;48610;52.144;8.624;2024-01-30T04:21:49;17.00;;;8.30;;
62554;SDS011;48610;52.144;8.624;2024-01-30T04:24:50;13.88;;;8.38;;
62554;SDS011;48610;52.144;8.624;2024-01-30T04:27:50;16.35;;;8.45;;
62554;SDS011;48610;52.144;8.624;2024-01-30T04:30:51;12.38;;;7.80;;
62554;SDS011;48610;52.144;8.624;2024-01-30T04:33:52;16.08;;;8.82;;
62554;SDS011;48610;52.144;8.624;2024-01-30T04:36:52;14.60;;;8.60;;
62554;SDS011;48610;52.144;8.624;2024-01-30T04:39:53;13.20;;;8.80;;
62554;SDS011;48610;52.144;8.624;2024-01-30T04:42:53;15.68;;;8.63;;
62554;SDS011;48610;52.144;8.624;2024-01-30T04:45:54;15.68;;;8.95;;
62554;SDS011;48610;52.144;8.624;2024-01-30T04:48:54;15.02;;;8.63;;
62554;SDS011;48610;52.144;8.624;2024-01-30T04:51:55;19.38;;;8.52;;
62554;SDS011;48610;52.144;8.624;2024-01-30T04:54:56;18.75;;;8.57;;
62554;SDS011;48610;52.144;8.624;2024-01-30T04:57:56;24.42;;;9.00;;
62554;SDS011;48610;52.144;8.624;2024-01-30T05:00:57;15.50;;;9.40;;
62554;SDS011;48610;52.144;8.624;2024-01-30T05:03:58;19.77;;;9.52;;
62554;SDS011;48610;52.144;8.624;2024-01-30T05:06:58;14.73;;;8.38;;
62554;SDS011;48610;52.144;8.624;2024-01-30T05:09:59;15.23;;;8.35;;
62554;SDS011;48610;52.144;8.624;2024-01-30T05:12:59;19.58;;;9.52;;
62554;SDS011;48610;52.144;8.624;2024-01-30T05:16:01;17.08;;;9.82;;
62554;SDS011;48610;52.144;8.624;2024-01-30T05:19:03;17.60;;;8.85;;
62554;SDS011;48610;52.144;8.624;2024-01-30T05:22:04;15.93;;;9.60;;
62554;SDS011;48610;52.144;8.624;2024-01-30T05:25:04;19.83;;;9.48;;
62554;SDS011;48610;52.144;8.624;2024-01-30T05:28:05;17.60;;;9.20;;
62554;SDS011;48610;52.144;8.624;2024-01-30T05:31:06;14.27;;;8.43;;
62554;SDS011;48610;52.144;8.624;2024-01-30T05:34:06;19.58;;;9.55;;
62554;SDS011;48610;52.144;8.624;2024-01-30T05:37:08;15.85;;;9.57;;
62554;SDS011;48610;52.144;8.624;2024-01-30T05:40:09;14.07;;;8.85;;
62554;SDS011;48610;52.144;8.624;2024-01-30T05:43:10;15.48;;;8.88;;
62554;SDS011;48610;52.144;8.624;2024-01-30T05:46:10;16.65;;;9.55;;
62554;SDS011;48610;52.144;8.624;2024-01-30T05:49:11;16.55;;;8.98;;
62554;SDS011;48610;52.144;8.624;2024-01-30T05:52:12;16.13;;;8.73;;
62554;SDS011;48610;52.144;8.624;2024-01-30T05:55:13;18.40;;;9.98;;
62554;SDS011;48610;52.144;8.624;2024-01-30T05:58:13;16.80;;;9.07;;
62554;SDS011;48610;52.144;8.624;2024-01-30T06:01:14;14.25;;;8.20;;
62554;SDS011;48610;52.144;8.624;2024-01-30T06:04:14;16.67;;;9.18;;
62554;SDS011;48610;52.144;8.624;2024-01-30T06:07:15;13.25;;;8.25;;
62554;SDS011;48610;52.144;8.624;2024-01-30T06:10:17;19.50;;;8.77;;
62554;SDS011;48610;52.144;8.624;2024-01-30T06:13:17;23.98;;;10.75;;
62554;SDS011;48610;52.144;8.624;2024-01-30T06:16:18;16.23;;;9.85;;
62554;SDS011;48610;52.144;8.624;2024-01-30T06:19:20;16.27;;;8.70;;
62554;SDS011;48610;52.144;8.624;2024-01-30T06:22:21;15.90;;;8.73;;
62554;SDS011;48610;52.144;8.624;2024-01-30T06:25:22;14.75;;;9.18;;
62554;SDS011;48610;52.144;8.624;2024-01-30T06:28:22;17.33;;;9.13;;
62554;SDS011;48610;52.144;8.624;2024-01-30T06:31:23;18.77;;;10.23;;
62554;SDS011;48610;52.144;8.624;2024-01-30T06:34:23;16.83;;;9.35;;
62554;SDS011;48610;52.144;8.624;2024-01-30T06:37:24;17.20;;;9.18;;
62554;SDS011;48610;52.144;8.624;2024-01-30T06:40:24;15.77;;;8.80;;
62554;SDS011;48610;52.144;8.624;2024-01-30T06:43:25;24.30;;;9.35;;
62554;SDS011;48610;52.144;8.624;2024-01-30T06:46:25;15.05;;;8.68;;
62554;SDS011;48610;52.144;8.624;2024-01-30T06:49:27;16.73;;;9.23;;
62554;SDS011;48610;52.144;8.624;2024-01-30T06:52:27;17.50;;;8.75;;
62554;SDS011;48610;52.144;8.624;2024-01-30T06:55:28;18.80;;;8.65;;
62554;SDS011;48610;52.144;8.624;2024-01-30T06:58:28;16.58;;;9.10;;
62554;SDS011;48610;52.144;8.624;2024-01-30T07:01:29;26.60;;;9.00;;
62554;SDS011;48610;52.144;8.624;2024-01-30T07:04:30;14.57;;;7.88;;
62554;SDS011;48610;52.144;8.624;2024-01-30T07:07:31;19.23;;;9.43;;
62554;SDS011;48610;52.144;8.624;2024-01-30T07:10:33;13.52;;;8.48;;
62554;SDS011;48610;52.144;8.624;2024-01-30T07:13:34;17.38;;;8.52;;
62554;SDS011;48610;52.144;8.624;2024-01-30T07:16:35;16.67;;;9.20;;
62554;SDS011;48610;52.144;8.624;2024-01-30T07:19:36;15.75;;;8.27;;
62554;SDS011;48610;52.144;8.624;2024-01-30T07:22:36;14.70;;;9.02;;
62554;SDS011;48610;52.144;8.624;2024-01-30T07:25:37;22.40;;;9.20;;
62554;SDS011;48610;52.144;8.624;2024-01-30T07:28:37;14.27;;;8.82;;
62554;SDS011;48610;52.144;8.624;2024-01-30T07:31:38;18.35;;;9.68;;
62554;SDS011;48610;52.144;8.624;2024-01-30T07:34:40;16.13;;;8.98;;
62554;SDS011;48610;52.144;8.624;2024-01-30T07:37:40;16.27;;;9.20;;
62554;SDS011;48610;52.144;8.624;2024-01-30T07:40:41;14.40;;;8.55;;
62554;SDS011;48610;52.144;8.624;2024-01-30T07:43:42;15.18;;;8.02;;
62554;SDS011;48610;52.144;8.624;2024-01-30T07:46:44;20.83;;;8.23;;
62554;SDS011;48610;52.144;8.624;2024-01-30T07:49:44;18.33;;;8.80;;
62554;SDS011;48610;52.144;8.624;2024-01-30T07:52:45;16.23;;;9.27;;
62554;SDS011;48610;52.144;8.624;2024-01-30T07:55:45;15.32;;;9.45;;
62554;SDS011;48610;52.144;8.624;2024-01-30T07:58:46;18.10;;;9.43;;
62554;SDS011;48610;52.144;8.624;2024-01-30T08:01:47;16.48;;;9.85;;
62554;SDS011;48610;52.144;8.624;2024-01-30T08:04:47;13.82;;;8.98;;
62554;SDS011;48610;52.144;8.624;2024-01-30T08:07:49;16.58;;;8.27;;
62554;SDS011;48610;52.144;8.624;2024-01-30T08:10:50;18.38;;;9.10;;
62554;SDS011;48610;52.144;8.624;2024-01-30T08:13:51;15.65;;;9.02;;
62554;SDS011;48610;52.144;8.624;2024-01-30T08:16:55;16.17;;;8.85;;
62554;SDS011;48610;52.144;8.624;2024-01-30T08:19:56;17.20;;;9.50;;
62554;SDS011;48610;52.144;8.624;2024-01-30T08:22:56;15.02;;;8.77;;
62554;SDS011;48610;52.144;8.624;2024-01-30T08:25:57;17.75;;;9.75;;
62554;SDS011;48610;52.144;8.624;2024-01-30T08:28:57;20.00;;;10.60;;
62554;SDS011;48610;52.144;8.624;2024-01-30T08:31:58;24.55;;;10.02;;
62554;SDS011;48610;52.144;8.624;2024-01-30T08:35:00;18.13;;;10.43;;
62554;SDS011;48610;52.144;8.624;2024-01-30T08:38:03;15.02;;;9.30;;
62554;SDS011;48610;52.144;8.624;2024-01-30T08:41:04;19.13;;;10.10;;
62554;SDS011;48610;52.144;8.624;2024-01-30T08:44:05;14.43;;;9.15;;
62554;SDS011;48610;52.144;8.624;2024-01-30T08:47:05;20.05;;;9.63;;
62554;SDS011;48610;52.144;8.624;2024-01-30T08:50:06;21.38;;;9.25;;
62554;SDS011;48610;52.144;8.624;2024-01-30T08:53:07;15.00;;;8.88;;
62554;SDS011;48610;52.144;8.624;2024-01-30T08:56:07;14.63;;;8.15;;
62554;SDS011;48610;52.144;8.624;2024-01-30T08:59:08;14.02;;;9.38;;
62554;SDS011;48610;52.144;8.624;2024-01-30T09:02:09;18.55;;;10.18;;
62554;SDS011;48610;52.144;8.624;2024-01-30T09:05:10;17.20;;;10.20;;
62554;SDS011;48610;52.144;8.624;2024-01-30T09:08:10;17.10;;;9.98;;
62554;SDS011;48610;52.144;8.624;2024-01-30T09:11:11;19.92;;;10.15;;
62554;SDS011;48610;52.144;8.624;2024-01-30T09:14:13;14.13;;;8.90;;
62554;SDS011;48610;52.144;8.624;2024-01-30T09:17:13;16.60;;;9.02;;
62554;SDS011;48610;52.144;8.624;2024-01-30T09:20:14;15.27;;;9.05;;
62554;SDS011;48610;52.144;8.624;2024-01-30T09:23:14;18.38;;;9.48;;
62554;SDS011;48610;52.144;8.624;2024-01-30T09:26:15;18.10;;;9.90;;
62554;SDS011;48610;52.144;8.624;2024-01-30T09:29:16;15.55;;;9.35;;
62554;SDS011;48610;52.144;8.624;2024-01-30T09:32:17;14.98;;;9.18;;
62554;SDS011;48610;52.144;8.624;2024-01-30T09:35:18;15.68;;;9.57;;
62554;SDS011;48610;52.144;8.624;2024-01-30T09:38:19;17.67;;;10.57;;
62554;SDS011;48610;52.144;8.624;2024-01-30T09:41:20;23.60;;;10.73;;
62554;SDS011;48610;52.144;8.624;2024-01-30T09:44:23;18.10;;;9.30;;
62554;SDS011;48610;52.144;8.624;2024-01-30T09:47:26;17.20;;;10.38;;
62554;SDS011;48610;52.144;8.624;2024-01-30T09:50:27;20.02;;;9.43;;
62554;SDS011;48610;52.144;8.624;2024-01-30T09:53:27;15.80;;;9.90;;
62554;SDS011;48610;52.144;8.624;2024-01-30T09:56:28;19.95;;;9.95;;
62554;SDS011;48610;52.144;8.624;2024-01-30T09:59:29;19.73;;;10.10;;
62554;SDS011;48610;52.144;8.624;2024-01-30T10:02:33;17.83;;;10.00;;
62554;SDS011;48610;52.144;8.624;2024-01-30T10:05:35;17.27;;;9.23;;
62554;SDS011;48610;52.144;8.624;2024-01-30T10:08:37;15.00;;;9.60;;
62554;SDS011;48610;52.144;8.624;2024-01-30T10:11:38;16.52;;;9.25;;
62554;SDS011;48610;52.144;8.624;2024-01-30T10:14:39;16.55;;;9.30;;
62554;SDS011;48610;52.144;8.624;2024-01-30T10:17:40;30.77;;;9.30;;
62554;SDS011;48610;52.144;8.624;2024-01-30T10:20:40;17.77;;;9.30;;
62554;SDS011;48610;52.144;8.624;2024-01-30T10:23:41;15.95;;;8.63;;
62554;SDS011;48610;52.144;8.624;2024-01-30T10:26:44;16.20;;;9.20;;
62554;SDS011;48610;52.144;8.624;2024-01-30T10:29:48;21.67;;;8.55;;
62554;SDS011;48610;52.144;8.624;2024-01-30T10:32:49;14.93;;;8.85;;
62554;SDS011;48610;52.144;8.624;2024-01-30T10:35:49;15.93;;;9.40;;
62554;SDS011;48610;52.144;8.624;2024-01-30T10:38:51;14.90;;;8.73;;
62554;SDS011;48610;52.144;8.624;2024-01-30T10:41:53;16.45;;;8.68;;
62554;SDS011;48610;52.144;8.624;2024-01-30T10:45:12;15.15;;;8.43;;
62554;SDS011;48610;52.144;8.624;2024-01-30T10:48:13;16.58;;;9.40;;
62554;SDS011;48610;52.144;8.624;2024-01-30T10:51:16;15.40;;;8.82;;
62554;SDS011;48610;52.144;8.624;2024-01-30T10:54:18;12.10;;;8.02;;
62554;SDS011;48610;52.144;8.624;2024-01-30T10:57:22;23.52;;;7.32;;
62554;SDS011;48610;52.144;8.624;2024-01-30T11:00:24;8.50;;;5.22;;
62554;SDS011;48610;52.144;8.624;2024-01-30T11:03:26;9.60;;;5.25;;
62554;SDS011;48610;52.144;8.624;2024-01-30T11:06:27;9.88;;;4.80;;
62554;SDS011;48610;52.144;8.624;2024-01-30T11:09:28;10.32;;;4.85;;
62554;SDS011;48610;52.144;8.624;2024-01-30T11:12:30;10.43;;;5.38;;
62554;SDS011;48610;52.144;8.624;2024-01-30T11:15:33;8.45;;;4.70;;
62554;SDS011;48610;52.144;8.624;2024-01-30T11:18:37;8.57;;;5.22;;
62554;SDS011;48610;52.144;8.624;2024-01-30T11:21:41;7.65;;;5.10;;
62554;SDS011;48610;52.144;8.624;2024-01-30T11:24:42;11.07;;;5.38;;
62554;SDS011;48610;52.144;8.624;2024-01-30T11:27:43;14.30;;;5.43;;
62554;SDS011;48610;52.144;8.624;2024-01-30T11:30:45;11.15;;;5.00;;
62554;SDS011;48610;52.144;8.624;2024-01-30T11:33:47;8.55;;;5.20;;
62554;SDS011;48610;52.144;8.624;2024-01-30T11:36:55;6.55;;;4.28;;
62554;SDS011;48610;52.144;8.624;2024-01-30T11:40:00;7.30;;;4.82;;
62554;SDS011;48610;52.144;8.624;2024-01-30T11:43:03;12.85;;;5.50;;
62554;SDS011;48610;52.144;8.624;2024-01-30T11:46:05;7.65;;;4.80;;
62554;SDS011;48610;52.144;8.624;2024-01-30T11:49:07;10.25;;;4.50;;
62554;SDS011;48610;52.144;8.624;2024-01-30T11:52:07;11.52;;;5.32;;
62554;SDS011;48610;52.144;8.624;2024-01-30T11:55:09;10.50;;;4.95;;
62554;SDS011;48610;52.144;8.624;2024-01-30T11:58:10;12.05;;;5.15;;
62554;SDS011;48610;52.144;8.624;2024-01-30T12:01:11;9.40;;;5.18;;
62554;SDS011;48610;52.144;8.624;2024-01-30T12:04:11;8.27;;;5.13;;
62554;SDS011;48610;52.144;8.624;2024-01-30T12:07:12;9.13;;;4.97;;
62554;SDS011;48610;52.144;8.624;2024-01-30T12:10:15;11.60;;;4.65;;
62554;SDS011;48610;52.144;8.624;2024-01-30T12:13:17;10.90;;;5.47;;
62554;SDS011;48610;52.144;8.624;2024-01-30T12:16:18;13.82;;;5.18;;
62554;SDS011;48610;52.144;8.624;2024-01-30T12:19:23;9.15;;;5.10;;
62554;SDS011;48610;52.144;8.624;2024-01-30T12:22:24;8.30;;;5.13;;
62554;SDS011;48610;52.144;8.624;2024-01-30T12:25:24;7.95;;;5.38;;
62554;SDS011;48610;52.144;8.624;2024-01-30T12:28:25;9.93;;;5.15;;
62554;SDS011;48610;52.144;8.624;2024-01-30T12:31:26;10.65;;;5.40;;
62554;SDS011;48610;52.144;8.624;2024-01-30T12:34:27;8.77;;;5.05;;
62554;SDS011;48610;52.144;8.624;2024-01-30T12:37:29;12.80;;;5.95;;
62554;SDS011;48610;52.144;8.624;2024-01-30T12:40:33;9.45;;;4.82;;
62554;SDS011;48610;52.144;8.624;2024-01-30T12:43:33;10.43;;;5.40;;
62554;SDS011;48610;52.144;8.624;2024-01-30T12:46:34;14.18;;;5.40;;
62554;SDS011;48610;52.144;8.624;2024-01-30T12:49:35;10.30;;;5.85;;
62554;SDS011;48610;52.144;8.624;2024-01-30T12:52:36;14.00;;;5.88;;
62554;SDS011;48610;52.144;8.624;2024-01-30T12:55:36;19.95;;;5.50;;
62554;SDS011;48610;52.144;8.624;2024-01-30T12:58:37;12.45;;;5.88;;
62554;SDS011;48610;52.144;8.624;2024-01-30T13:01:38;16.77;;;5.63;;
62554;SDS011;48610;52.144;8.624;2024-01-30T13:04:39;11.52;;;5.70;;
62554;SDS011;48610;52.144;8.624;2024-01-30T13:07:40;13.38;;;5.80;;
62554;SDS011;48610;52.144;8.624;2024-01-30T13:10:40;12.30;;;6.20;;
62554;SDS011;48610;52.144;8.624;2024-01-30T13:13:41;18.27;;;6.45;;
62554;SDS011;48610;52.144;8.624;2024-01-30T13:16:42;11.38;;;5.78;;
62554;SDS011;48610;52.144;8.624;2024-01-30T13:19:43;12.02;;;5.53;;
62554;SDS011;48610;52.144;8.624;2024-01-30T13:22:44;10.90;;;5.70;;
62554;SDS011;48610;52.144;8.624;2024-01-30T13:25:44;12.38;;;6.18;;
62554;SDS011;48610;52.144;8.624;2024-01-30T13:28:45;9.23;;;5.57;;
62554;SDS011;48610;52.144;8.624;2024-01-30T13:31:45;9.90;;;5.35;;
62554;SDS011;48610;52.144;8.624;2024-01-30T13:34:46;9.85;;;6.00;;
62554;SDS011;48610;52.144;8.624;2024-01-30T13:37:47;9.07;;;5.78;;
62554;SDS011;48610;52.144;8.624;2024-01-30T13:40:48;10.88;;;5.38;;
62554;SDS011;48610;52.144;8.624;2024-01-30T13:43:49;14.07;;;6.50;;
62554;SDS011;48610;52.144;8.624;2024-01-30T13:46:49;12.73;;;6.70;;
62554;SDS011;48610;52.144;8.624;2024-01-30T13:49:50;11.85;;;6.50;;
62554;SDS011;48610;52.144;8.624;2024-01-30T13:52:53;13.13;;;5.90;;
62554;SDS011;48610;52.144;8.624;2024-01-30T13:55:53;17.95;;;6.13;;
62554;SDS011;48610;52.144;8.624;2024-01-30T13:58:54;13.60;;;5.65;;
62554;SDS011;48610;52.144;8.624;2024-01-30T14:01:55;18.80;;;7.13;;
62554;SDS011;48610;52.144;8.624;2024-01-30T14:04:56;14.60;;;6.90;;
62554;SDS011;48610;52.144;8.624;2024-01-30T14:07:57;13.15;;;6.82;;
62554;SDS011;48610;52.144;8.624;2024-01-30T14:10:59;10.05;;;5.13;;
62554;SDS011;48610;52.144;8.624;2024-01-30T14:14:00;10.73;;;6.43;;
62554;SDS011;48610;52.144;8.624;2024-01-30T14:17:00;12.60;;;6.97;;
62554;SDS011;48610;52.144;8.624;2024-01-30T14:20:02;10.05;;;6.75;;
62554;SDS011;48610;52.144;8.624;2024-01-30T14:23:04;17.73;;;6.85;;
62554;SDS011;48610;52.144;8.624;2024-01-30T14:26:05;12.07;;;6.47;;
62554;SDS011;48610;52.144;8.624;2024-01-30T14:29:06;17.38;;;7.43;;
62554;SDS011;48610;52.144;8.624;2024-01-30T14:32:07;10.02;;;5.50;;
62554;SDS011;48610;52.144;8.624;2024-01-30T14:35:07;14.70;;;6.15;;
62554;SDS011;48610;52.144;8.624;2024-01-30T14:38:09;14.32;;;7.43;;
62554;SDS011;48610;52.144;8.624;2024-01-30T14:41:09;15.50;;;8.18;;
62554;SDS011;48610;52.144;8.624;2024-01-30T14:44:10;14.25;;;8.43;;
62554;SDS011;48610;52.144;8.624;2024-01-30T14:47:11;13.85;;;7.78;;
62554;SDS011;48610;52.144;8.624;2024-01-30T14:50:13;12.75;;;7.32;;
62554;SDS011;48610;52.144;8.624;2024-01-30T14:53:16;27.40;;;9.68;;
62554;SDS011;48610;52.144;8.624;2024-01-30T14:56:17;11.23;;;7.30;;
62554;SDS011;48610;52.144;8.624;2024-01-30T14:59:18;14.38;;;7.28;;
62554;SDS011;48610;52.144;8.624;2024-01-30T15:02:19;21.88;;;9.80;;
62554;SDS011;48610;52.144;8.624;2024-01-30T15:05:19;15.40;;;7.65;;
62554;SDS011;48610;52.144;8.624;2024-01-30T15:08:20;14.15;;;6.28;;
62554;SDS011;48610;52.144;8.624;2024-01-30T15:11:21;12.68;;;6.25;;
62554;SDS011;48610;52.144;8.624;2024-01-30T15:14:22;13.55;;;7.38;;
62554;SDS011;48610;52.144;8.624;2024-01-30T15:17:23;18.05;;;7.72;;
62554;SDS011;48610;52.144;8.624;2024-01-30T15:20:24;14.52;;;7.15;;
62554;SDS011;48610;52.144;8.624;2024-01-30T15:23:25;13.63;;;6.93;;
62554;SDS011;48610;52.144;8.624;2024-01-30T15:26:25;18.00;;;7.90;;
62554;SDS011;48610;52.144;8.624;2024-01-30T15:29:26;13.40;;;6.32;;
62554;SDS011;48610;52.144;8.624;2024-01-30T15:32:26;7.30;;;5.03;;
62554;SDS011;48610;52.144;8.624;2024-01-30T15:35:27;7.95;;;3.47;;
62554;SDS011;48610;52.144;8.624;2024-01-30T15:38:28;10.27;;;7.00;;
62554;SDS011;48610;52.144;8.624;2024-01-30T15:41:29;15.00;;;7.03;;
62554;SDS011;48610;52.144;8.624;2024-01-30T15:44:29;10.20;;;6.35;;
62554;SDS011;48610;52.144;8.624;2024-01-30T15:47:31;14.68;;;6.60;;
62554;SDS011;48610;52.144;8.624;2024-01-30T15:50:33;8.15;;;5.40;;
62554;SDS011;48610;52.144;8.624;2024-01-30T15:53:33;16.15;;;6.95;;
62554;SDS011;48610;52.144;8.624;2024-01-30T15:56:34;12.80;;;6.30;;
62554;SDS011;48610;52.144;8.624;2024-01-30T15:59:36;6.32;;;4.03;;
62554;SDS011;48610;52.144;8.624;2024-01-30T16:02:36;11.32;;;7.10;;
62554;SDS011;48610;52.144;8.624;2024-01-30T16:05:37;11.77;;;6.25;;
62554;SDS011;48610;52.144;8.624;2024-01-30T16:08:38;12.90;;;4.70;;
62554;SDS011;48610;52.144;8.624;2024-01-30T16:11:38;11.18;;;6.97;;
62554;SDS011;48610;52.144;8.624;2024-01-30T16:14:39;10.48;;;6.80;;
62554;SDS011;48610;52.144;8.624;2024-01-30T16:17:40;10.85;;;6.78;;
62554;SDS011;48610;52.144;8.624;2024-01-30T16:20:41;11.48;;;6.80;;
62554;SDS011;48610;52.144;8.624;2024-01-30T16:23:43;12.57;;;6.97;;
62554;SDS011;48610;52.144;8.624;2024-01-30T16:26:43;10.65;;;7.13;;
62554;SDS011;48610;52.144;8.624;2024-01-30T16:29:44;10.50;;;6.60;;
62554;SDS011;48610;52.144;8.624;2024-01-30T16:32:44;8.85;;;6.47;;
62554;SDS011;48610;52.144;8.624;2024-01-30T16:35:45;15.15;;;6.80;;
62554;SDS011;48610;52.144;8.624;2024-01-30T16:38:46;12.10;;;6.80;;
62554;SDS011;48610;52.144;8.624;2024-01-30T16:41:46;13.45;;;7.13;;
62554;SDS011;48610;52.144;8.624;2024-01-30T16:44:47;19.17;;;6.78;;
62554;SDS011;48610;52.144;8.624;2024-01-30T16:47:47;10.43;;;6.53;;
62554;SDS011;48610;52.144;8.624;2024-01-30T16:50:48;12.63;;;7.05;;
62554;SDS011;48610;52.144;8.624;2024-01-30T16:53:49;7.97;;;4.93;;
62554;SDS011;48610;52.144;8.624;2024-01-30T16:56:49;15.57;;;6.40;;
62554;SDS011;48610;52.144;8.624;2024-01-30T16:59:50;16.48;;;6.13;;
62554;SDS011;48610;52.144;8.624;2024-01-30T17:02:50;17.98;;;6.35;;
62554;SDS011;48610;52.144;8.624;2024-01-30T17:05:51;12.55;;;5.57;;
62554;SDS011;48610;52.144;8.624;2024-01-30T17:08:54;10.32;;;3.55;;
62554;SDS011;48610;52.144;8.624;2024-01-30T17:11:55;10.85;;;5.00;;
62554;SDS011;48610;52.144;8.624;2024-01-30T17:14:56;15.85;;;4.40;;
62554;SDS011;48610;52.144;8.624;2024-01-30T17:17:57;9.43;;;4.55;;
62554;SDS011;48610;52.144;8.624;2024-01-30T17:20:57;11.65;;;4.00;;
62554;SDS011;48610;52.144;8.624;2024-01-30T17:23:58;9.20;;;3.97;;
62554;SDS011;48610;52.144;8.624;2024-01-30T17:26:58;5.20;;;2.55;;
62554;SDS011;48610;52.144;8.624;2024-01-30T17:29:59;6.22;;;3.55;;
62554;SDS011;48610;52.144;8.624;2024-01-30T17:33:00;11.68;;;4.32;;
62554;SDS011;48610;52.144;8.624;2024-01-30T17:36:01;9.02;;;3.40;;
62554;SDS011;48610;52.144;8.624;2024-01-30T17:39:03;6.88;;;3.60;;
62554;SDS011;48610;52.144;8.624;2024-01-30T17:42:05;9.95;;;4.07;;
62554;SDS011;48610;52.144;8.624;2024-01-30T17:45:06;4.55;;;3.33;;
62554;SDS011;48610;52.144;8.624;2024-01-30T17:48:07;7.13;;;3.33;;
62554;SDS011;48610;52.144;8.624;2024-01-30T17:51:08;6.80;;;3.83;;
62554;SDS011;48610;52.144;8.624;2024-01-30T17:54:08;4.00;;;2.58;;
62554;SDS011;48610;52.144;8.624;2024-01-30T17:57:09;5.68;;;3.42;;